Voyager Of The Seas — C6SE5 — position and weather

sailwx.info

Track history (hours):
 
Tides and Currents Weather Stations Pressure Air Temp Water Temp Dewpoint Dewpoint Depression Visibility Wind Speed Wind Dir Waves Ship Positions

Voyager Of The Seas

Operator: Royal Caribbean Cruises Ltd

Last reported at 2019-Jul-16 00:30 UTC. Time now 2019-Jul-16 00:53 UTC.
Position N 34°39' E 135°25'.

Type: Passenger vessel. MMSI: 311317000.

Date/timePositionNaut miles runAvg speedWind from/ knotsBaromVisibWave heightAir tempDewpointWater temp
2019-Jul-16 00:30N 34°39' E 135°25'5 9.6
2019-Jul-16 00:00N 34°36' E 135°21'611.8
2019-Jul-15 23:30N 34°33' E 135°15'713.9
2019-Jul-15 23:00N 34°28' E 135°09'917.8
2019-Jul-15 22:30N 34°21' E 135°02'917.4
2019-Jul-15 22:00N 34°13' E 134°59'914.9
2019-Jul-15 21:26N 34°04' E 134°58'7717.4
2019-Jul-15 17:00N 33°00' E 134°06'37320.7 100 / 101005.010.8 26.0 26.0
2019-Jul-14 23:00N 28°00' E 129°48'10621.1 220 / 111003.0 5.4 28.0 28.0
2019-Jul-14 18:00N 26°36' E 128°36'25910.4 200 / 141003.0 5.4 27.0 28.0
2019-Jul-13 17:00N 26°12' E 123°48'5618.1 200 / 271000.0 5.4 28.0 28.0
2019-Jul-13 13:55N 26°00' E 122°47'917.7
2019-Jul-13 13:25N 25°59' E 122°38'818.2
2019-Jul-13 12:58N 25°57' E 122°29'918.0
2019-Jul-13 12:28N 25°56' E 122°19'1018.2
2019-Jul-13 11:57N 25°54' E 122°08'1518.0
2019-Jul-13 11:07N 25°52' E 121°52'217.5
2019-Jul-13 10:59N 25°51' E 121°50'1117.2
2019-Jul-13 10:22N 25°46' E 121°39'1017.0
2019-Jul-13 09:45N 25°41' E 121°29'616.8
2019-Jul-13 09:26N 25°39' E 121°24'1617.1
2019-Jul-13 08:29N 25°30' E 121°09'918.2
2019-Jul-13 08:00N 25°24' E 121°01'918.8
2019-Jul-13 07:30N 25°19' E 120°53'40818.0
2019-Jul-12 08:49N 22°18' E 114°13'1 1.6
2019-Jul-12 08:17N 22°18' E 114°13'0 0.0
2019-Jul-12 07:41N 22°18' E 114°13'0 0.0
2019-Jul-12 07:26N 22°18' E 114°13'0 0.0
2019-Jul-12 06:56N 22°18' E 114°13'0 0.0
2019-Jul-12 06:14N 22°18' E 114°13'0 0.0
2019-Jul-12 05:50N 22°18' E 114°13'0 0.0
2019-Jul-12 05:26N 22°18' E 114°13'0 0.0
2019-Jul-12 04:56N 22°18' E 114°13'0 0.0
2019-Jul-12 04:26N 22°18' E 114°13'0 0.0
2019-Jul-12 03:32N 22°18' E 114°13'0 0.1
2019-Jul-12 03:26N 22°18' E 114°13'0 0.0
2019-Jul-12 02:50N 22°18' E 114°13'0 0.0
2019-Jul-12 02:26N 22°18' E 114°13'0 0.0
2019-Jul-12 01:20N 22°18' E 114°13'0 0.0
2019-Jul-12 00:59N 22°18' E 114°13'0 0.0
2019-Jul-12 00:26N 22°18' E 114°13'0 0.0
2019-Jul-11 23:56N 22°18' E 114°13'0 0.0
2019-Jul-11 23:26N 22°18' E 114°13'0 0.0
2019-Jul-11 22:56N 22°18' E 114°13'0 0.5
2019-Jul-11 22:30N 22°18' E 114°13'8414.2
2019-Jul-11 16:35N 20°59' E 113°41'318.5
2019-Jul-11 16:24N 20°56' E 113°40'1119.5
2019-Jul-11 15:51N 20°46' E 113°35'720.5
2019-Jul-11 15:30N 20°40' E 113°31'379 7.5
2019-Jul-09 13:00N 15°06' E 110°24'21616.6 170 / 231002.010.8 29.0 28.0
2019-Jul-09 00:00N 18°24' E 111°54'26818.2 180 / 281002.0 5.4 30.0 29.0
2019-Jul-08 09:19N 22°17' E 114°13'1 2.8
2019-Jul-08 08:57N 22°18' E 114°13'0 0.0
2019-Jul-08 08:30N 22°18' E 114°13'0 0.0
2019-Jul-08 07:30N 22°18' E 114°13'0 0.0
2019-Jul-08 06:21N 22°18' E 114°13'0 0.0
2019-Jul-08 06:00N 22°18' E 114°13'0 0.0
2019-Jul-08 05:24N 22°18' E 114°13'0 0.0
2019-Jul-08 05:00N 22°18' E 114°13'0 0.0
2019-Jul-08 04:15N 22°18' E 114°13'0 0.0
2019-Jul-08 03:51N 22°18' E 114°13'0 0.0
2019-Jul-08 03:30N 22°18' E 114°13'0 0.0
2019-Jul-08 02:48N 22°18' E 114°13'0 0.0
2019-Jul-08 02:27N 22°18' E 114°13'0 0.0
2019-Jul-08 01:57N 22°18' E 114°13'0 0.0
2019-Jul-08 01:27N 22°18' E 114°13'0 0.0
2019-Jul-08 01:00N 22°18' E 114°13'0 0.0
2019-Jul-08 00:30N 22°18' E 114°13'0 0.0
2019-Jul-08 00:00N 22°18' E 114°13'0 0.0
2019-Jul-07 23:30N 22°18' E 114°13'0 0.0
2019-Jul-07 23:00N 22°18' E 114°13'0 0.0
2019-Jul-07 22:27N 22°18' E 114°13'0 0.0
2019-Jul-07 22:00N 22°18' E 114°13'0 0.2
2019-Jul-07 21:30N 22°18' E 114°13'4 6.5
2019-Jul-07 20:57N 22°16' E 114°16'3910.3
2019-Jul-07 17:11N 21°40' E 114°00'212.4
2019-Jul-07 16:59N 21°38' E 113°58'2912.4
2019-Jul-07 14:40N 21°18' E 113°36'412.6
2019-Jul-07 14:21N 21°16' E 113°33'412.2
2019-Jul-07 14:00N 21°13' E 113°30'812.3
2019-Jul-07 13:23N 21°07' E 113°24'512.5
2019-Jul-07 12:57N 21°03' E 113°20'1113.8
2019-Jul-07 12:11N 20°55' E 113°12'314.9
2019-Jul-07 11:59N 20°53' E 113°10'1415.0
2019-Jul-07 11:04N 20°43' E 113°00'714.9
2019-Jul-07 10:37N 20°39' E 112°55'37011.1
2019-Jul-06 01:19N 16°18' E 108°19'  
Track history (hours):
 
Tides and Currents Weather Stations Pressure Air Temp Water Temp Dewpoint Dewpoint Depression Visibility Wind Speed Wind Dir Waves Ship Positions

Voyager Of The Seas

Operator: Royal Caribbean Cruises Ltd

Last reported at 2019-Jul-16 00:30 UTC. Time now 2019-Jul-16 00:53 UTC.
Position N 34°39' E 135°25'.

Type: Passenger vessel. MMSI: 311317000.

Date/timePositionNaut miles runAvg speedWind from/ knotsBaromVisibWave heightAir tempDewpointWater temp
2019-Jul-16 00:30N 34°39' E 135°25'5 9.6
2019-Jul-16 00:00N 34°36' E 135°21'611.8
2019-Jul-15 23:30N 34°33' E 135°15'713.9
2019-Jul-15 23:00N 34°28' E 135°09'917.8
2019-Jul-15 22:30N 34°21' E 135°02'917.4
2019-Jul-15 22:00N 34°13' E 134°59'914.9
2019-Jul-15 21:26N 34°04' E 134°58'7717.4
2019-Jul-15 17:00N 33°00' E 134°06'37320.7 100 / 101005.010.8 26.0 26.0
2019-Jul-14 23:00N 28°00' E 129°48'10621.1 220 / 111003.0 5.4 28.0 28.0
2019-Jul-14 18:00N 26°36' E 128°36'25910.4 200 / 141003.0 5.4 27.0 28.0
2019-Jul-13 17:00N 26°12' E 123°48'5618.1 200 / 271000.0 5.4 28.0 28.0
2019-Jul-13 13:55N 26°00' E 122°47'917.7
2019-Jul-13 13:25N 25°59' E 122°38'818.2
2019-Jul-13 12:58N 25°57' E 122°29'918.0
2019-Jul-13 12:28N 25°56' E 122°19'1018.2
2019-Jul-13 11:57N 25°54' E 122°08'1518.0
2019-Jul-13 11:07N 25°52' E 121°52'217.5
2019-Jul-13 10:59N 25°51' E 121°50'1117.2
2019-Jul-13 10:22N 25°46' E 121°39'1017.0
2019-Jul-13 09:45N 25°41' E 121°29'616.8
2019-Jul-13 09:26N 25°39' E 121°24'1617.1
2019-Jul-13 08:29N 25°30' E 121°09'918.2
2019-Jul-13 08:00N 25°24' E 121°01'918.8
2019-Jul-13 07:30N 25°19' E 120°53'40818.0
2019-Jul-12 08:49N 22°18' E 114°13'1 1.6
2019-Jul-12 08:17N 22°18' E 114°13'0 0.0
2019-Jul-12 07:41N 22°18' E 114°13'0 0.0
2019-Jul-12 07:26N 22°18' E 114°13'0 0.0
2019-Jul-12 06:56N 22°18' E 114°13'0 0.0
2019-Jul-12 06:14N 22°18' E 114°13'0 0.0
2019-Jul-12 05:50N 22°18' E 114°13'0 0.0
2019-Jul-12 05:26N 22°18' E 114°13'0 0.0
2019-Jul-12 04:56N 22°18' E 114°13'0 0.0
2019-Jul-12 04:26N 22°18' E 114°13'0 0.0
2019-Jul-12 03:32N 22°18' E 114°13'0 0.1
2019-Jul-12 03:26N 22°18' E 114°13'0 0.0
2019-Jul-12 02:50N 22°18' E 114°13'0 0.0
2019-Jul-12 02:26N 22°18' E 114°13'0 0.0
2019-Jul-12 01:20N 22°18' E 114°13'0 0.0
2019-Jul-12 00:59N 22°18' E 114°13'0 0.0
2019-Jul-12 00:26N 22°18' E 114°13'0 0.0
2019-Jul-11 23:56N 22°18' E 114°13'0 0.0
2019-Jul-11 23:26N 22°18' E 114°13'0 0.0
2019-Jul-11 22:56N 22°18' E 114°13'0 0.5
2019-Jul-11 22:30N 22°18' E 114°13'8414.2
2019-Jul-11 16:35N 20°59' E 113°41'318.5
2019-Jul-11 16:24N 20°56' E 113°40'1119.5
2019-Jul-11 15:51N 20°46' E 113°35'720.5
2019-Jul-11 15:30N 20°40' E 113°31'379 7.5
2019-Jul-09 13:00N 15°06' E 110°24'21616.6 170 / 231002.010.8 29.0 28.0
2019-Jul-09 00:00N 18°24' E 111°54'26818.2 180 / 281002.0 5.4 30.0 29.0
2019-Jul-08 09:19N 22°17' E 114°13'1 2.8
2019-Jul-08 08:57N 22°18' E 114°13'0 0.0
2019-Jul-08 08:30N 22°18' E 114°13'0 0.0
2019-Jul-08 07:30N 22°18' E 114°13'0 0.0
2019-Jul-08 06:21N 22°18' E 114°13'0 0.0
2019-Jul-08 06:00N 22°18' E 114°13'0 0.0
2019-Jul-08 05:24N 22°18' E 114°13'0 0.0
2019-Jul-08 05:00N 22°18' E 114°13'0 0.0
2019-Jul-08 04:15N 22°18' E 114°13'0 0.0
2019-Jul-08 03:51N 22°18' E 114°13'0 0.0
2019-Jul-08 03:30N 22°18' E 114°13'0 0.0
2019-Jul-08 02:48N 22°18' E 114°13'0 0.0
2019-Jul-08 02:27N 22°18' E 114°13'0 0.0
2019-Jul-08 01:57N 22°18' E 114°13'0 0.0
2019-Jul-08 01:27N 22°18' E 114°13'0 0.0
2019-Jul-08 01:00N 22°18' E 114°13'0 0.0
2019-Jul-08 00:30N 22°18' E 114°13'0 0.0
2019-Jul-08 00:00N 22°18' E 114°13'0 0.0
2019-Jul-07 23:30N 22°18' E 114°13'0 0.0
2019-Jul-07 23:00N 22°18' E 114°13'0 0.0
2019-Jul-07 22:27N 22°18' E 114°13'0 0.0
2019-Jul-07 22:00N 22°18' E 114°13'0 0.2
2019-Jul-07 21:30N 22°18' E 114°13'4 6.5
2019-Jul-07 20:57N 22°16' E 114°16'3910.3
2019-Jul-07 17:11N 21°40' E 114°00'212.4
2019-Jul-07 16:59N 21°38' E 113°58'2912.4
2019-Jul-07 14:40N 21°18' E 113°36'412.6
2019-Jul-07 14:21N 21°16' E 113°33'412.2
2019-Jul-07 14:00N 21°13' E 113°30'812.3
2019-Jul-07 13:23N 21°07' E 113°24'512.5
2019-Jul-07 12:57N 21°03' E 113°20'1113.8
2019-Jul-07 12:11N 20°55' E 113°12'314.9
2019-Jul-07 11:59N 20°53' E 113°10'1415.0
2019-Jul-07 11:04N 20°43' E 113°00'714.9
2019-Jul-07 10:37N 20°39' E 112°55'37011.1
2019-Jul-06 01:19N 16°18' E 108°19'  

Dump ship's entire track history